createdAt,value
2017-09-26T00:00:04.633Z,13.5
2017-09-26T00:01:06.241Z,13.4
2017-09-26T00:02:07.850Z,13.5
2017-09-26T00:03:09.460Z,13.4
2017-09-26T00:04:11.074Z,13.5
2017-09-26T00:05:12.686Z,13.5
2017-09-26T00:06:14.297Z,13.5
2017-09-26T00:07:15.910Z,13.5
2017-09-26T00:08:17.517Z,13.5
2017-09-26T00:09:19.133Z,13.4
2017-09-26T00:10:20.741Z,13.5
2017-09-26T00:11:22.356Z,13.5
2017-09-26T00:12:23.964Z,13.5
2017-09-26T00:13:25.580Z,13.4
2017-09-26T00:14:27.187Z,13.5
2017-09-26T00:15:28.801Z,13.4
2017-09-26T00:16:30.414Z,13.4
2017-09-26T00:17:32.028Z,13.4
2017-09-26T00:18:33.634Z,13.3
2017-09-26T00:19:35.240Z,13.4
2017-09-26T00:20:36.857Z,13.3
2017-09-26T00:21:38.462Z,13.3
2017-09-26T00:22:40.072Z,13.3
2017-09-26T00:23:41.686Z,13.1
2017-09-26T00:24:43.299Z,13.1
2017-09-26T00:25:44.908Z,13.1
2017-09-26T00:26:46.517Z,13.0
2017-09-26T00:27:48.134Z,13.0
2017-09-26T00:28:49.747Z,12.9
2017-09-26T00:29:51.354Z,12.9
2017-09-26T00:30:52.969Z,12.9
2017-09-26T00:31:54.577Z,12.9
2017-09-26T00:32:56.185Z,12.8
2017-09-26T00:33:57.802Z,12.8
2017-09-26T00:34:59.412Z,12.8
2017-09-26T00:36:01.024Z,12.9
2017-09-26T00:37:02.632Z,12.8
2017-09-26T00:38:04.248Z,12.8
2017-09-26T00:39:05.856Z,12.9
2017-09-26T00:40:07.474Z,12.8
2017-09-26T00:41:09.086Z,12.8
2017-09-26T00:42:10.698Z,12.7
2017-09-26T00:43:12.305Z,12.7
2017-09-26T00:44:13.924Z,12.7
2017-09-26T00:45:15.532Z,12.7
2017-09-26T00:46:17.138Z,12.6
2017-09-26T00:47:18.751Z,12.7
2017-09-26T00:48:20.365Z,12.7
2017-09-26T00:49:21.972Z,12.7
2017-09-26T00:50:23.585Z,12.6
2017-09-26T00:51:25.191Z,12.6
2017-09-26T00:52:26.805Z,12.6
2017-09-26T00:53:28.417Z,12.6
2017-09-26T00:54:30.030Z,12.6
2017-09-26T00:55:31.645Z,12.6
2017-09-26T00:56:33.256Z,12.6
2017-09-26T00:57:34.872Z,12.5
2017-09-26T00:58:36.477Z,12.6
2017-09-26T00:59:38.094Z,12.6
2017-09-26T01:00:39.699Z,12.6
2017-09-26T01:01:41.316Z,12.6
2017-09-26T01:02:42.924Z,12.6
2017-09-26T01:03:44.535Z,12.5
2017-09-26T01:04:46.143Z,12.6
2017-09-26T01:05:47.756Z,12.5
2017-09-26T01:06:49.364Z,12.6
2017-09-26T01:07:50.979Z,12.6
2017-09-26T01:08:52.587Z,12.5
2017-09-26T01:09:54.196Z,12.6
2017-09-26T01:10:55.805Z,12.6
2017-09-26T01:11:57.418Z,12.5
2017-09-26T01:12:59.025Z,12.6
2017-09-26T01:14:00.638Z,12.6
2017-09-26T01:15:02.249Z,12.6
2017-09-26T01:16:03.861Z,12.6
2017-09-26T01:17:05.468Z,12.6
2017-09-26T01:18:07.082Z,12.6
2017-09-26T01:19:08.689Z,12.6
2017-09-26T01:20:10.302Z,12.6
2017-09-26T01:21:11.907Z,12.6
2017-09-26T01:22:13.519Z,12.5
2017-09-26T01:23:15.148Z,12.6
2017-09-26T01:24:16.761Z,12.6
2017-09-26T01:25:18.381Z,12.7
2017-09-26T01:26:19.993Z,12.7
2017-09-26T01:27:21.610Z,12.7
2017-09-26T01:28:23.220Z,12.7
2017-09-26T01:29:24.843Z,12.7
2017-09-26T01:30:26.454Z,12.8
2017-09-26T01:31:28.076Z,12.8
2017-09-26T01:32:29.694Z,12.7
2017-09-26T01:33:31.310Z,12.7
2017-09-26T01:34:32.923Z,12.7
2017-09-26T01:35:34.540Z,12.7
2017-09-26T01:36:36.159Z,12.8
2017-09-26T01:37:37.774Z,12.7
2017-09-26T01:38:39.393Z,12.7
2017-09-26T01:39:41.007Z,12.7
2017-09-26T01:40:42.623Z,12.8
2017-09-26T01:41:44.235Z,12.7
2017-09-26T01:42:45.855Z,12.7
2017-09-26T01:43:47.468Z,12.7
2017-09-26T01:44:49.090Z,12.8
2017-09-26T01:45:50.703Z,12.8
2017-09-26T01:46:52.324Z,12.9
2017-09-26T01:47:53.933Z,12.8
2017-09-26T01:48:55.552Z,12.8
2017-09-26T01:49:57.165Z,12.8
2017-09-26T01:50:58.782Z,12.9
2017-09-26T01:52:00.399Z,12.8
2017-09-26T01:53:02.015Z,12.8
2017-09-26T01:54:03.634Z,12.9
2017-09-26T01:55:05.240Z,12.9
2017-09-26T01:56:06.860Z,12.9
2017-09-26T01:57:08.481Z,12.9
2017-09-26T01:58:10.091Z,12.9
2017-09-26T01:59:11.707Z,12.9
2017-09-26T02:00:13.326Z,12.9
2017-09-26T02:01:14.944Z,12.9
2017-09-26T02:02:16.557Z,13.0
2017-09-26T02:03:18.166Z,13.0
2017-09-26T02:04:19.790Z,13.1
2017-09-26T02:05:21.408Z,13.0
2017-09-26T02:06:23.021Z,13.1
2017-09-26T02:07:24.634Z,13.1
2017-09-26T02:08:26.257Z,13.1
2017-09-26T02:09:27.868Z,13.1
2017-09-26T02:10:29.488Z,13.2
2017-09-26T02:11:31.105Z,13.2
2017-09-26T02:12:32.715Z,13.3
2017-09-26T02:13:34.330Z,13.3
2017-09-26T02:14:35.953Z,13.2
2017-09-26T02:15:37.569Z,13.3
2017-09-26T02:16:39.183Z,13.3
2017-09-26T02:17:40.803Z,13.3
2017-09-26T02:18:42.415Z,13.3
2017-09-26T02:19:44.029Z,13.3
2017-09-26T02:20:45.649Z,13.3
2017-09-26T02:21:47.266Z,13.3
2017-09-26T02:22:48.881Z,13.3
2017-09-26T02:23:50.491Z,13.3
2017-09-26T02:24:52.113Z,13.4
2017-09-26T02:25:53.731Z,13.3
2017-09-26T02:26:55.343Z,13.4
2017-09-26T02:27:56.968Z,13.3
2017-09-26T02:28:58.589Z,13.3
2017-09-26T02:30:00.211Z,13.4
2017-09-26T02:31:01.821Z,13.3
2017-09-26T02:32:03.434Z,13.3
2017-09-26T02:33:05.053Z,13.3
2017-09-26T02:34:06.665Z,13.3
2017-09-26T02:35:08.288Z,13.3
2017-09-26T02:36:09.900Z,13.3
2017-09-26T02:37:11.525Z,13.3
2017-09-26T02:38:13.134Z,13.2
2017-09-26T02:39:14.752Z,13.2
2017-09-26T02:40:16.366Z,13.2
2017-09-26T02:41:17.983Z,13.2
2017-09-26T02:42:19.596Z,13.3
2017-09-26T02:43:21.217Z,13.2
2017-09-26T02:44:22.830Z,13.1
2017-09-26T02:45:24.448Z,13.1
2017-09-26T02:46:26.057Z,13.2
2017-09-26T02:47:27.685Z,13.1
2017-09-26T02:48:29.289Z,13.1
2017-09-26T02:49:30.910Z,13.0
2017-09-26T02:50:32.531Z,13.0
2017-09-26T02:51:34.144Z,13.0
2017-09-26T02:52:35.761Z,13.0
2017-09-26T02:53:37.369Z,13.1
2017-09-26T02:54:38.992Z,13.0
2017-09-26T02:55:40.600Z,13.0
2017-09-26T02:56:42.222Z,13.0
2017-09-26T02:57:43.833Z,13.0
2017-09-26T02:58:45.454Z,13.0
2017-09-26T02:59:47.063Z,13.0
2017-09-26T03:00:48.682Z,13.0
2017-09-26T03:01:50.299Z,12.9
2017-09-26T03:02:51.920Z,13.0
2017-09-26T03:03:53.533Z,12.9
2017-09-26T03:04:55.154Z,13.0
2017-09-26T03:05:56.769Z,13.0
2017-09-26T03:06:58.388Z,13.0
2017-09-26T03:08:00.000Z,13.0
2017-09-26T03:09:01.613Z,12.9
2017-09-26T03:10:03.232Z,12.9
2017-09-26T03:11:04.854Z,13.0
2017-09-26T03:12:06.465Z,13.0
2017-09-26T03:13:08.079Z,12.9
2017-09-26T03:14:09.698Z,12.9
2017-09-26T03:15:11.315Z,12.9
2017-09-26T03:16:12.924Z,13.0
2017-09-26T03:17:14.538Z,12.9
2017-09-26T03:18:16.158Z,12.9
2017-09-26T03:19:17.774Z,12.9
2017-09-26T03:20:19.388Z,12.9
2017-09-26T03:21:21.000Z,12.9
2017-09-26T03:22:22.618Z,13.0
2017-09-26T03:23:24.233Z,12.9
2017-09-26T03:24:25.880Z,12.9
2017-09-26T03:25:27.499Z,12.9
2017-09-26T03:26:29.112Z,12.9
2017-09-26T03:27:30.727Z,12.9
2017-09-26T03:28:32.344Z,13.0
2017-09-26T03:29:33.963Z,13.0
2017-09-26T03:30:35.575Z,12.9
2017-09-26T03:31:37.190Z,13.0
2017-09-26T03:32:38.802Z,12.9
2017-09-26T03:33:40.413Z,13.0
2017-09-26T03:34:42.037Z,13.0
2017-09-26T03:35:43.654Z,12.9
2017-09-26T03:36:45.272Z,12.9
2017-09-26T03:37:46.889Z,12.9
2017-09-26T03:38:48.498Z,12.9
2017-09-26T03:39:50.110Z,12.9
2017-09-26T03:40:51.735Z,13.0
2017-09-26T03:41:53.347Z,12.9
2017-09-26T03:42:54.970Z,13.0
2017-09-26T03:43:56.578Z,12.9
2017-09-26T03:44:58.197Z,13.0
2017-09-26T03:45:59.809Z,12.9
2017-09-26T03:47:01.430Z,12.9
2017-09-26T03:48:03.046Z,12.9
2017-09-26T03:49:04.666Z,12.9
2017-09-26T03:50:06.281Z,13.0
2017-09-26T03:51:07.889Z,12.9
2017-09-26T03:52:09.510Z,12.9
2017-09-26T03:53:11.128Z,12.9
2017-09-26T03:54:12.745Z,12.9
2017-09-26T03:55:14.367Z,12.9
2017-09-26T03:56:15.987Z,12.9
2017-09-26T03:57:17.602Z,12.9
2017-09-26T03:58:19.219Z,12.9
2017-09-26T03:59:20.830Z,12.9
2017-09-26T04:00:22.447Z,13.0
2017-09-26T04:01:24.060Z,12.9
2017-09-26T04:02:25.679Z,13.0
2017-09-26T04:03:27.293Z,12.9
2017-09-26T04:04:28.903Z,12.9
2017-09-26T04:05:30.518Z,13.0
2017-09-26T04:06:32.137Z,13.0
2017-09-26T04:07:33.762Z,13.0
2017-09-26T04:08:35.368Z,12.9
2017-09-26T04:09:36.986Z,12.9
2017-09-26T04:10:38.601Z,13.0
2017-09-26T04:11:40.216Z,13.0
2017-09-26T04:12:41.827Z,13.0
2017-09-26T04:13:43.445Z,13.0
2017-09-26T04:14:45.065Z,13.0
2017-09-26T04:15:46.676Z,13.0
2017-09-26T04:16:48.292Z,13.0
2017-09-26T04:17:49.910Z,13.0
2017-09-26T04:18:51.529Z,13.0
2017-09-26T04:19:53.140Z,13.0
2017-09-26T04:20:54.762Z,13.0
2017-09-26T04:21:56.378Z,13.0
2017-09-26T04:22:57.993Z,13.0
2017-09-26T04:23:59.607Z,13.0
2017-09-26T04:25:01.227Z,13.1
2017-09-26T04:26:02.840Z,13.0
2017-09-26T04:27:04.460Z,13.0
2017-09-26T04:28:06.070Z,13.0
2017-09-26T04:29:07.686Z,13.1
2017-09-26T04:30:09.306Z,13.0
2017-09-26T04:31:10.926Z,13.0
2017-09-26T04:32:12.537Z,13.0
2017-09-26T04:33:14.149Z,13.0
2017-09-26T04:34:15.769Z,13.1
2017-09-26T04:35:17.384Z,13.1
2017-09-26T04:36:18.995Z,13.0
2017-09-26T04:37:20.608Z,13.0
2017-09-26T04:38:22.222Z,13.0
2017-09-26T04:39:23.842Z,13.1
2017-09-26T04:40:25.453Z,13.0
2017-09-26T04:41:27.067Z,13.0
2017-09-26T04:42:28.684Z,13.1
2017-09-26T04:43:30.302Z,13.1
2017-09-26T04:44:31.918Z,13.1
2017-09-26T04:45:33.529Z,13.1
2017-09-26T04:46:35.150Z,13.1
2017-09-26T04:47:36.762Z,13.0
2017-09-26T04:48:38.382Z,13.1
2017-09-26T04:49:39.997Z,13.1
2017-09-26T04:50:41.612Z,13.1
2017-09-26T04:51:43.223Z,13.1
2017-09-26T04:52:44.844Z,13.1
2017-09-26T04:53:46.456Z,13.1
2017-09-26T04:54:48.070Z,13.1
2017-09-26T04:55:49.721Z,13.1
2017-09-26T04:56:51.337Z,13.1
2017-09-26T04:57:52.950Z,13.1
2017-09-26T04:58:54.569Z,13.1
2017-09-26T04:59:56.181Z,13.1
2017-09-26T05:00:57.799Z,13.1
2017-09-26T05:01:59.416Z,13.1
2017-09-26T05:03:01.027Z,13.1
2017-09-26T05:04:02.648Z,13.1
2017-09-26T05:05:04.258Z,13.1
2017-09-26T05:06:05.878Z,13.1
2017-09-26T05:07:07.488Z,13.1
2017-09-26T05:08:09.109Z,13.1
2017-09-26T05:09:10.721Z,13.2
2017-09-26T05:10:12.342Z,13.1
2017-09-26T05:11:13.960Z,13.1
2017-09-26T05:12:15.576Z,13.2
2017-09-26T05:13:17.190Z,13.2
2017-09-26T05:14:18.820Z,13.2
2017-09-26T05:15:20.434Z,13.1
2017-09-26T05:16:22.053Z,13.2
2017-09-26T05:17:23.670Z,13.2
2017-09-26T05:18:25.282Z,13.2
2017-09-26T05:19:26.905Z,13.2
2017-09-26T05:20:28.521Z,13.2
2017-09-26T05:21:30.139Z,13.2
2017-09-26T05:22:31.753Z,13.2
2017-09-26T05:23:33.372Z,13.2
2017-09-26T05:24:34.990Z,13.2
2017-09-26T05:25:36.602Z,13.2
2017-09-26T05:26:38.221Z,13.3
2017-09-26T05:27:39.831Z,13.3
2017-09-26T05:28:41.457Z,13.3
2017-09-26T05:29:43.072Z,13.2
2017-09-26T05:30:44.689Z,13.3
2017-09-26T05:31:46.309Z,13.3
2017-09-26T05:32:47.928Z,13.3
2017-09-26T05:33:49.556Z,13.3
2017-09-26T05:34:51.179Z,13.4
2017-09-26T05:35:52.798Z,13.5
2017-09-26T05:36:54.421Z,13.4
2017-09-26T05:37:56.032Z,13.5
2017-09-26T05:38:57.664Z,13.5
2017-09-26T05:39:59.271Z,13.5
2017-09-26T05:41:00.902Z,13.5
2017-09-26T05:42:02.534Z,13.5
2017-09-26T05:43:04.160Z,13.4
2017-09-26T05:44:05.777Z,13.4
2017-09-26T05:45:07.430Z,13.5
2017-09-26T05:46:09.046Z,13.5
2017-09-26T05:47:10.666Z,13.5
2017-09-26T05:48:12.281Z,13.5
2017-09-26T05:49:13.904Z,13.5
2017-09-26T05:50:15.546Z,13.5
2017-09-26T05:51:17.174Z,13.4
2017-09-26T05:52:18.791Z,13.5
2017-09-26T05:53:20.408Z,13.4
2017-09-26T05:54:22.027Z,13.5
2017-09-26T05:55:23.963Z,13.5
2017-09-26T05:56:25.587Z,13.5
2017-09-26T05:57:27.444Z,13.4
2017-09-26T05:58:29.035Z,13.4
2017-09-26T05:59:30.655Z,13.4
2017-09-26T06:00:32.271Z,13.4
2017-09-26T06:01:33.886Z,13.4
2017-09-26T06:02:35.510Z,13.5
2017-09-26T06:03:37.137Z,13.5
2017-09-26T06:04:38.754Z,13.5
2017-09-26T06:05:40.373Z,13.4
2017-09-26T06:06:41.995Z,13.5
2017-09-26T06:07:43.616Z,13.6
2017-09-26T06:08:45.230Z,13.5
2017-09-26T06:09:46.849Z,13.6
2017-09-26T06:10:48.476Z,13.5
2017-09-26T06:11:50.101Z,13.6
2017-09-26T06:12:51.716Z,13.5
2017-09-26T06:13:53.331Z,13.5
2017-09-26T06:14:54.954Z,13.5
2017-09-26T06:15:56.574Z,13.5
2017-09-26T06:16:58.190Z,13.5
2017-09-26T06:18:00.043Z,13.5
2017-09-26T06:19:01.674Z,13.6
2017-09-26T06:20:03.293Z,13.5
2017-09-26T06:21:04.912Z,13.6
2017-09-26T06:22:06.528Z,13.5
2017-09-26T06:23:08.158Z,13.6
2017-09-26T06:24:09.787Z,13.6
2017-09-26T06:25:11.412Z,13.6
2017-09-26T06:26:13.126Z,13.7
2017-09-26T06:27:14.807Z,13.6
2017-09-26T06:28:16.433Z,13.7
2017-09-26T06:29:18.073Z,13.7
2017-09-26T06:30:19.687Z,13.7
2017-09-26T06:31:21.313Z,13.7
2017-09-26T06:32:22.930Z,13.7
2017-09-26T06:33:24.562Z,13.7
2017-09-26T06:34:26.183Z,13.8
2017-09-26T06:35:27.837Z,13.8
2017-09-26T06:36:29.451Z,13.8
2017-09-26T06:37:31.078Z,13.8
2017-09-26T06:38:32.694Z,13.8
2017-09-26T06:39:34.316Z,13.8
2017-09-26T06:40:35.933Z,13.8
2017-09-26T06:41:37.554Z,13.8
2017-09-26T06:42:39.182Z,13.9
2017-09-26T06:43:40.798Z,13.8
2017-09-26T06:44:42.426Z,13.8
2017-09-26T06:45:44.059Z,13.9
2017-09-26T06:46:45.686Z,13.9
2017-09-26T06:47:47.303Z,13.9
2017-09-26T06:48:49.359Z,13.9
2017-09-26T06:49:52.208Z,13.9
2017-09-26T06:50:53.861Z,14.0
2017-09-26T06:51:55.485Z,14.1
2017-09-26T06:52:57.108Z,14.1
2017-09-26T06:53:58.725Z,14.0
2017-09-26T06:55:00.425Z,14.1
2017-09-26T06:56:02.034Z,14.2
2017-09-26T06:57:03.658Z,14.2
2017-09-26T06:58:05.325Z,14.2
2017-09-26T06:59:06.939Z,14.2
2017-09-26T07:00:08.582Z,14.3
2017-09-26T07:01:10.203Z,14.2
2017-09-26T07:02:11.821Z,14.3
2017-09-26T07:03:13.445Z,14.3
2017-09-26T07:04:15.066Z,14.3
2017-09-26T07:05:16.681Z,14.4
2017-09-26T07:06:18.308Z,14.4
2017-09-26T07:07:19.929Z,14.5
2017-09-26T07:08:21.546Z,14.6
2017-09-26T07:09:23.169Z,14.6
2017-09-26T07:10:24.795Z,14.6
2017-09-26T07:11:26.419Z,14.6
2017-09-26T07:12:28.038Z,14.7
2017-09-26T07:13:29.661Z,14.7
2017-09-26T07:14:31.278Z,14.8
2017-09-26T07:15:32.900Z,14.8
2017-09-26T07:16:34.528Z,14.9
2017-09-26T07:17:36.153Z,14.9
2017-09-26T07:18:37.771Z,14.8
2017-09-26T07:19:39.396Z,15.1
2017-09-26T07:20:41.014Z,15.1
2017-09-26T07:21:42.631Z,15.0
2017-09-26T07:22:44.258Z,15.1
2017-09-26T07:23:45.875Z,15.2
2017-09-26T07:24:47.502Z,15.2
2017-09-26T07:25:49.116Z,15.3
2017-09-26T07:26:50.740Z,15.3
2017-09-26T07:27:52.355Z,15.3
2017-09-26T07:28:53.981Z,15.4
2017-09-26T07:29:55.600Z,15.4
2017-09-26T07:30:57.228Z,15.4
2017-09-26T07:31:58.845Z,15.5
2017-09-26T07:33:00.465Z,15.7
2017-09-26T07:34:02.078Z,15.6
2017-09-26T07:35:03.706Z,15.7
2017-09-26T07:36:05.354Z,15.8
2017-09-26T07:37:07.037Z,15.7
2017-09-26T07:38:08.664Z,15.8
2017-09-26T07:39:10.281Z,15.7
2017-09-26T07:40:11.904Z,15.8
2017-09-26T07:41:13.520Z,15.9
2017-09-26T07:42:15.146Z,15.9
2017-09-26T07:43:16.764Z,15.9
2017-09-26T07:44:18.392Z,15.9
2017-09-26T07:45:20.008Z,16.0
2017-09-26T07:46:21.633Z,16.0
2017-09-26T07:47:23.250Z,16.1
2017-09-26T07:48:25.162Z,16.2
2017-09-26T07:49:26.779Z,16.1
2017-09-26T07:50:28.406Z,16.1
2017-09-26T07:51:30.021Z,16.3
2017-09-26T07:52:31.648Z,16.3
2017-09-26T07:53:33.268Z,16.3
2017-09-26T07:54:34.894Z,16.4
2017-09-26T07:55:36.513Z,16.4
2017-09-26T07:56:38.136Z,16.4
2017-09-26T07:57:39.754Z,16.4
2017-09-26T07:58:41.379Z,16.5
2017-09-26T07:59:42.998Z,16.4
2017-09-26T08:00:44.623Z,16.5
2017-09-26T08:01:46.247Z,16.5
2017-09-26T08:02:47.865Z,16.6
2017-09-26T08:03:49.490Z,16.7
2017-09-26T08:04:51.116Z,16.7
2017-09-26T08:05:52.733Z,16.8
2017-09-26T08:06:54.353Z,16.9
2017-09-26T08:07:55.986Z,16.9
2017-09-26T08:08:57.610Z,17.0
2017-09-26T08:09:59.230Z,17.0
2017-09-26T08:11:00.849Z,17.1
2017-09-26T08:12:02.471Z,17.2
2017-09-26T08:13:04.097Z,17.3
2017-09-26T08:14:05.716Z,17.3
2017-09-26T08:15:07.339Z,17.3
2017-09-26T08:16:08.964Z,17.4
2017-09-26T08:17:20.380Z,17.5
2017-09-26T08:18:21.959Z,17.7
2017-09-26T08:19:23.576Z,17.8
2017-09-26T08:20:25.205Z,17.8
2017-09-26T08:21:26.827Z,17.9
2017-09-26T08:22:28.450Z,18.0
2017-09-26T08:23:30.073Z,18.1
2017-09-26T08:24:31.700Z,18.2
2017-09-26T08:25:33.325Z,18.2
2017-09-26T08:26:34.979Z,18.3
2017-09-26T08:27:36.569Z,18.4
2017-09-26T08:28:38.191Z,18.5
2017-09-26T08:29:39.820Z,18.5
2017-09-26T08:30:41.438Z,18.5
2017-09-26T08:31:43.057Z,18.5
2017-09-26T08:32:44.686Z,18.6
2017-09-26T08:33:46.311Z,18.6
2017-09-26T08:34:47.936Z,18.6
2017-09-26T08:35:49.561Z,18.7
2017-09-26T08:36:51.186Z,18.8
2017-09-26T08:37:52.805Z,18.8
2017-09-26T08:38:54.429Z,18.8
2017-09-26T08:39:56.046Z,18.7
2017-09-26T08:40:57.676Z,18.8
2017-09-26T08:41:59.296Z,19.0
2017-09-26T08:43:00.925Z,18.9
2017-09-26T08:44:02.550Z,19.1
2017-09-26T08:45:04.172Z,19.2
2017-09-26T08:46:05.790Z,19.2
2017-09-26T08:47:07.421Z,19.2
2017-09-26T08:48:09.047Z,19.0
2017-09-26T08:49:10.671Z,19.2
2017-09-26T08:50:12.293Z,19.3
2017-09-26T08:51:13.919Z,19.5
2017-09-26T08:52:15.543Z,19.8
2017-09-26T08:53:17.163Z,20.4
2017-09-26T08:54:18.794Z,20.4
2017-09-26T08:55:20.413Z,20.4
2017-09-26T08:56:22.048Z,20.5
2017-09-26T08:57:23.671Z,20.5
2017-09-26T08:58:25.302Z,20.8
2017-09-26T08:59:26.921Z,21.1
2017-09-26T09:00:28.552Z,21.1
2017-09-26T09:01:30.170Z,21.5
2017-09-26T09:02:31.797Z,21.8
2017-09-26T09:03:33.419Z,22.1
2017-09-26T09:04:35.042Z,22.8
2017-09-26T09:05:36.681Z,23.2
2017-09-26T09:06:38.300Z,23.1
2017-09-26T09:07:39.930Z,23.5
2017-09-26T09:08:41.553Z,23.1
2017-09-26T09:09:43.188Z,23.3
2017-09-26T09:10:44.814Z,23.6
2017-09-26T09:11:46.436Z,23.7
2017-09-26T09:12:48.061Z,24.1
2017-09-26T09:13:49.695Z,24.5
2017-09-26T09:14:51.320Z,24.8
2017-09-26T09:15:52.946Z,24.8
2017-09-26T09:16:54.583Z,24.9
2017-09-26T09:17:56.206Z,24.8
2017-09-26T09:18:57.830Z,24.9
2017-09-26T09:19:59.462Z,24.7
2017-09-26T09:21:01.101Z,24.5
2017-09-26T09:22:02.732Z,24.5
2017-09-26T09:23:04.360Z,24.5
2017-09-26T09:24:05.986Z,24.3
2017-09-26T09:25:07.615Z,24.4
2017-09-26T09:26:09.249Z,24.4
2017-09-26T09:27:10.878Z,24.3
2017-09-26T09:28:12.502Z,24.2
2017-09-26T09:29:14.130Z,24.2
2017-09-26T09:30:15.763Z,24.8
2017-09-26T09:31:17.392Z,25.0
2017-09-26T09:32:19.017Z,25.0
2017-09-26T09:33:20.649Z,25.0
2017-09-26T09:34:22.278Z,24.9
2017-09-26T09:35:23.904Z,25.0
2017-09-26T09:36:25.528Z,25.7
2017-09-26T09:37:27.158Z,25.7
2017-09-26T09:38:28.783Z,26.2
2017-09-26T09:39:30.415Z,26.0
2017-09-26T09:40:32.043Z,26.8
2017-09-26T09:41:33.674Z,27.5
2017-09-26T09:42:35.305Z,28.1
2017-09-26T09:43:36.929Z,28.2
2017-09-26T09:44:38.566Z,28.7
2017-09-26T09:45:40.193Z,29.2
2017-09-26T09:46:41.843Z,29.7
2017-09-26T09:47:43.478Z,30.0
2017-09-26T09:48:45.123Z,30.2
2017-09-26T09:49:46.761Z,30.4
2017-09-26T09:50:48.409Z,30.6
2017-09-26T09:51:50.046Z,30.9
2017-09-26T09:52:51.743Z,31.1
2017-09-26T09:53:53.343Z,31.3
2017-09-26T09:54:54.980Z,31.7
2017-09-26T09:55:56.620Z,31.9
2017-09-26T09:56:58.273Z,32.3
2017-09-26T09:57:59.933Z,32.3
2017-09-26T09:59:01.575Z,32.7
2017-09-26T10:00:03.259Z,32.6
2017-09-26T10:01:04.899Z,32.8
2017-09-26T10:02:06.542Z,33.0
2017-09-26T10:03:08.189Z,33.1
2017-09-26T10:04:09.836Z,32.5
2017-09-26T10:05:11.475Z,32.0
2017-09-26T10:06:14.693Z,31.8
2017-09-26T10:07:17.998Z,32.0
2017-09-26T10:08:22.163Z,32.0
2017-09-26T10:09:24.971Z,32.5
2017-09-26T10:10:28.796Z,32.8
2017-09-26T10:11:32.299Z,33.0
2017-09-26T10:12:36.730Z,33.3
2017-09-26T10:13:41.330Z,33.6
2017-09-26T10:14:46.386Z,33.7
2017-09-26T10:15:52.388Z,34.0
2017-09-26T10:16:53.169Z,34.1
2017-09-26T10:17:54.858Z,33.6
2017-09-26T10:18:56.462Z,33.4
2017-09-26T10:19:58.103Z,33.7
2017-09-26T10:20:59.745Z,33.6
2017-09-26T10:22:01.390Z,33.6
2017-09-26T10:23:03.039Z,33.8
2017-09-26T10:24:04.678Z,34.1
2017-09-26T10:25:06.332Z,34.0
2017-09-26T10:26:07.994Z,34.4
2017-09-26T10:27:09.642Z,34.3
2017-09-26T10:28:11.291Z,34.3
2017-09-26T10:29:12.982Z,34.3
2017-09-26T10:30:14.630Z,34.1
2017-09-26T10:31:16.270Z,34.0
2017-09-26T10:32:17.922Z,33.8
2017-09-26T10:33:19.582Z,33.6
2017-09-26T10:34:21.215Z,34.0
2017-09-26T10:35:22.845Z,34.2
2017-09-26T10:36:24.502Z,34.4
2017-09-26T10:37:26.139Z,34.7
2017-09-26T10:38:27.778Z,34.7
2017-09-26T10:39:29.424Z,34.7
2017-09-26T10:40:31.059Z,34.2
2017-09-26T10:41:32.691Z,34.0
2017-09-26T10:42:34.340Z,33.6
2017-09-26T10:43:35.978Z,33.1
2017-09-26T10:44:37.618Z,32.8
2017-09-26T10:45:39.254Z,32.4
2017-09-26T10:46:40.902Z,32.5
2017-09-26T10:47:42.545Z,32.6
2017-09-26T10:48:44.180Z,33.0
2017-09-26T10:49:45.812Z,33.1
2017-09-26T10:50:47.467Z,33.2
2017-09-26T10:51:49.108Z,33.2
2017-09-26T10:52:50.744Z,32.4
2017-09-26T10:53:52.382Z,32.1
2017-09-26T10:54:54.017Z,31.5
2017-09-26T10:55:55.661Z,31.3
2017-09-26T10:56:57.881Z,31.5
2017-09-26T10:57:59.531Z,31.9
2017-09-26T10:59:01.168Z,32.6
2017-09-26T11:00:02.805Z,32.9
2017-09-26T11:01:04.438Z,33.2
2017-09-26T11:02:06.084Z,33.4
2017-09-26T11:03:07.730Z,33.8
2017-09-26T11:04:09.379Z,34.2
2017-09-26T11:05:11.045Z,34.3
2017-09-26T11:06:12.688Z,34.3
2017-09-26T11:07:14.325Z,34.5
2017-09-26T11:08:15.962Z,34.8
2017-09-26T11:09:17.607Z,34.7
2017-09-26T11:10:19.243Z,35.0
2017-09-26T11:11:20.921Z,35.1
2017-09-26T11:12:22.556Z,35.1
2017-09-26T11:13:24.218Z,35.1
2017-09-26T11:14:25.850Z,35.2
2017-09-26T11:15:27.493Z,35.6
2017-09-26T11:16:29.132Z,35.3
2017-09-26T11:17:30.772Z,35.6
2017-09-26T11:18:32.421Z,35.7
2017-09-26T11:19:34.078Z,35.8
2017-09-26T11:20:35.727Z,35.8
2017-09-26T11:21:37.373Z,36.2
2017-09-26T11:22:39.011Z,36.0
2017-09-26T11:23:40.676Z,36.3
2017-09-26T11:24:42.339Z,36.5
2017-09-26T11:25:43.977Z,36.3
2017-09-26T11:26:45.633Z,36.2
2017-09-26T11:27:47.285Z,36.0
2017-09-26T11:28:48.955Z,34.6
2017-09-26T11:29:50.600Z,34.1
2017-09-26T11:30:52.248Z,33.7
2017-09-26T11:31:53.889Z,32.9
2017-09-26T11:32:55.553Z,32.2
2017-09-26T11:33:57.191Z,31.6
2017-09-26T11:34:58.827Z,31.3
2017-09-26T11:36:00.473Z,30.9
2017-09-26T11:37:02.161Z,30.6
2017-09-26T11:38:03.808Z,30.3
2017-09-26T11:39:05.442Z,30.0
2017-09-26T11:40:07.092Z,29.7
2017-09-26T11:41:08.733Z,29.7
2017-09-26T11:42:10.373Z,30.3
2017-09-26T11:43:12.010Z,30.3
2017-09-26T11:44:13.671Z,30.6
2017-09-26T11:45:15.302Z,30.9
2017-09-26T11:46:16.931Z,30.6
2017-09-26T11:47:18.571Z,30.8
2017-09-26T11:48:20.216Z,31.2
2017-09-26T11:49:21.862Z,30.7
2017-09-26T11:50:23.494Z,31.0
2017-09-26T11:51:25.144Z,31.3
2017-09-26T11:52:26.779Z,31.5
2017-09-26T11:53:28.420Z,31.7
2017-09-26T11:54:30.082Z,32.0
2017-09-26T11:55:31.709Z,32.3
2017-09-26T11:56:33.339Z,32.5
2017-09-26T11:57:34.978Z,32.3
2017-09-26T11:58:36.607Z,32.6
2017-09-26T11:59:38.244Z,32.6
2017-09-26T12:00:39.868Z,32.5
2017-09-26T12:01:41.507Z,31.9
2017-09-26T12:02:43.161Z,31.1
2017-09-26T12:03:44.821Z,30.7
2017-09-26T12:04:46.462Z,30.5
2017-09-26T12:05:48.111Z,30.2
2017-09-26T12:06:49.758Z,30.5
2017-09-26T12:07:51.402Z,30.7
2017-09-26T12:08:53.128Z,31.1
2017-09-26T12:09:54.770Z,31.7
2017-09-26T12:10:56.409Z,32.0
2017-09-26T12:11:58.045Z,32.0
2017-09-26T12:12:59.690Z,32.1
2017-09-26T12:14:01.315Z,32.1
2017-09-26T12:15:02.988Z,32.5
2017-09-26T12:16:04.615Z,32.8
2017-09-26T12:17:06.250Z,32.6
2017-09-26T12:18:07.888Z,32.5
2017-09-26T12:19:09.603Z,32.7
2017-09-26T12:20:11.235Z,32.8
2017-09-26T12:21:13.228Z,32.9
2017-09-26T12:22:14.864Z,33.1
2017-09-26T12:23:16.512Z,33.0
2017-09-26T12:24:18.158Z,32.6
2017-09-26T12:25:19.786Z,32.4
2017-09-26T12:26:21.469Z,31.8
2017-09-26T12:27:23.094Z,31.2
2017-09-26T12:28:24.736Z,30.6
2017-09-26T12:29:26.357Z,30.3
2017-09-26T12:30:28.030Z,30.0
2017-09-26T12:31:29.659Z,29.4
2017-09-26T12:32:31.293Z,29.5
2017-09-26T12:33:32.953Z,29.6
2017-09-26T12:34:34.586Z,30.1
2017-09-26T12:35:36.354Z,29.9
2017-09-26T12:36:39.691Z,29.4
2017-09-26T12:37:41.286Z,29.2
2017-09-26T12:38:42.912Z,29.3
2017-09-26T12:39:44.547Z,29.7
2017-09-26T12:40:46.187Z,30.0
2017-09-26T12:41:47.820Z,29.6
2017-09-26T12:42:49.442Z,29.2
2017-09-26T12:43:54.026Z,28.9
2017-09-26T12:44:55.630Z,28.4
2017-09-26T12:45:57.252Z,28.0
2017-09-26T12:46:58.877Z,27.2
2017-09-26T12:48:00.510Z,26.9
2017-09-26T12:49:02.143Z,26.8
2017-09-26T12:50:03.767Z,26.6
2017-09-26T12:51:05.395Z,26.6
2017-09-26T12:52:07.021Z,26.4
2017-09-26T12:53:08.652Z,26.1
2017-09-26T12:54:10.281Z,25.9
2017-09-26T12:55:11.909Z,25.8
2017-09-26T12:56:13.540Z,25.8
2017-09-26T12:57:15.162Z,25.7
2017-09-26T12:58:16.835Z,25.4
2017-09-26T12:59:18.455Z,25.3
2017-09-26T13:00:21.194Z,25.2
2017-09-26T13:01:22.812Z,25.1
2017-09-26T13:02:24.764Z,25.1
2017-09-26T13:03:31.904Z,25.0
2017-09-26T13:04:33.526Z,24.9
2017-09-26T13:05:35.150Z,24.8
2017-09-26T13:06:36.780Z,24.6
2017-09-26T13:07:38.409Z,24.5
2017-09-26T13:08:40.038Z,24.5
2017-09-26T13:09:41.668Z,24.3
2017-09-26T13:10:43.295Z,24.2
2017-09-26T13:11:44.917Z,24.1
2017-09-26T13:12:46.537Z,24.0
2017-09-26T13:13:48.162Z,23.9
2017-09-26T13:14:49.791Z,23.8
2017-09-26T13:15:51.422Z,23.6
2017-09-26T13:16:53.041Z,23.7
2017-09-26T13:17:54.673Z,23.6
2017-09-26T13:18:56.292Z,23.5
2017-09-26T13:19:57.917Z,23.5
2017-09-26T13:20:59.538Z,23.5
2017-09-26T13:22:01.168Z,23.3
2017-09-26T13:23:02.791Z,23.2
2017-09-26T13:24:04.414Z,23.1
2017-09-26T13:25:06.040Z,23.0
2017-09-26T13:26:07.666Z,22.9
2017-09-26T13:27:09.295Z,22.9
2017-09-26T13:28:10.918Z,22.8
2017-09-26T13:29:12.548Z,22.8
2017-09-26T13:30:14.174Z,22.7
2017-09-26T13:31:15.796Z,22.7
2017-09-26T13:32:17.426Z,22.5
2017-09-26T13:33:19.046Z,22.4
2017-09-26T13:34:20.667Z,22.5
2017-09-26T13:35:22.297Z,22.4
2017-09-26T13:36:23.925Z,22.4
2017-09-26T13:37:25.545Z,22.2
2017-09-26T13:38:27.169Z,22.2
2017-09-26T13:39:28.801Z,22.1
2017-09-26T13:40:30.421Z,22.1